createdAt,value
2023-04-18T00:01:52.925Z,100819.52
2023-04-18T00:04:20.416Z,100821.88
2023-04-18T00:06:49.737Z,100826.98
2023-04-18T00:09:16.579Z,100823.87
2023-04-18T00:11:43.628Z,100819.56
2023-04-18T00:14:10.527Z,100818.98
2023-04-18T00:16:38.912Z,100814.10
2023-04-18T00:19:06.852Z,100816.33
2023-04-18T00:21:33.687Z,100810.38
2023-04-18T00:24:00.627Z,100811.77
2023-04-18T00:26:28.273Z,100807.98
2023-04-18T00:28:56.396Z,100811.45
2023-04-18T00:31:23.416Z,100809.41
2023-04-18T00:33:50.931Z,100808.66
2023-04-18T00:36:17.835Z,100808.46
2023-04-18T00:38:45.106Z,100809.30
2023-04-18T00:41:12.008Z,100806.96
2023-04-18T00:43:38.825Z,100809.66
2023-04-18T00:46:06.437Z,100806.73
2023-04-18T00:48:34.116Z,100806.56
2023-04-18T00:51:01.906Z,100802.17
2023-04-18T00:53:29.520Z,100799.83
2023-04-18T00:55:56.424Z,100802.41
2023-04-18T00:58:24.913Z,100801.98
2023-04-18T01:00:52.235Z,100799.52
2023-04-18T01:03:19.186Z,100797.81
2023-04-18T01:05:46.588Z,100798.34
2023-04-18T01:08:14.364Z,100796.87
2023-04-18T01:10:41.964Z,100794.93
2023-04-18T01:13:20.472Z,100794.29
2023-04-18T01:15:49.349Z,100795.09
2023-04-18T01:18:17.363Z,100795.16
2023-04-18T01:20:47.689Z,100793.75
2023-04-18T01:23:15.844Z,100793.11
2023-04-18T01:25:43.972Z,100791.52
2023-04-18T01:28:12.217Z,100787.23
2023-04-18T01:30:39.041Z,100786.29
2023-04-18T01:33:06.673Z,100783.35
2023-04-18T01:35:33.851Z,100780.17
2023-04-18T01:38:01.442Z,100778.82
2023-04-18T01:40:28.413Z,100778.98
2023-04-18T01:42:55.349Z,100771.20
2023-04-18T01:45:22.529Z,100772.59
2023-04-18T01:47:49.529Z,100768.77
2023-04-18T01:50:16.424Z,100771.90
2023-04-18T01:52:43.283Z,100768.39
2023-04-18T01:55:10.506Z,100767.94
2023-04-18T01:57:38.031Z,100768.38
2023-04-18T02:00:06.573Z,100767.56
2023-04-18T02:02:41.525Z,100766.73
2023-04-18T02:05:09.288Z,100768.10
2023-04-18T02:07:38.540Z,100767.64
2023-04-18T02:10:06.049Z,100765.41
2023-04-18T02:12:34.301Z,100764.89
2023-04-18T02:15:01.562Z,100767.25
2023-04-18T02:17:28.840Z,100769.09
2023-04-18T02:19:55.948Z,100765.49
2023-04-18T02:22:23.065Z,100764.90
2023-04-18T02:24:49.982Z,100765.02
2023-04-18T02:27:16.897Z,100765.84
2023-04-18T02:29:43.770Z,100763.94
2023-04-18T02:32:11.080Z,100762.77
2023-04-18T02:34:38.104Z,100759.16
2023-04-18T02:37:05.182Z,100755.32
2023-04-18T02:39:32.608Z,100757.26
2023-04-18T02:41:59.517Z,100759.38
2023-04-18T02:44:26.473Z,100763.05
2023-04-18T02:46:53.333Z,100763.21
2023-04-18T02:49:20.312Z,100764.99
2023-04-18T02:51:47.456Z,100765.20
2023-04-18T02:54:15.437Z,100769.98
2023-04-18T02:57:04.884Z,100763.54
2023-04-18T02:59:55.145Z,100762.95
2023-04-18T03:02:22.144Z,100758.87
2023-04-18T03:04:53.882Z,100759.84
2023-04-18T03:07:20.869Z,100760.77
2023-04-18T03:09:48.990Z,100760.90
2023-04-18T03:12:22.976Z,100761.61
2023-04-18T03:14:49.982Z,100759.63
2023-04-18T03:17:17.027Z,100760.86
2023-04-18T03:19:47.400Z,100763.17
2023-04-18T03:22:16.503Z,100761.33
2023-04-18T03:24:48.995Z,100759.73
2023-04-18T03:27:16.334Z,100755.78
2023-04-18T03:29:44.129Z,100756.15
2023-04-18T03:32:11.480Z,100757.41
2023-04-18T03:34:38.915Z,100757.59
2023-04-18T03:37:07.493Z,100757.13
2023-04-18T03:39:38.194Z,100755.60
2023-04-18T03:42:05.508Z,100759.05
2023-04-18T03:44:33.296Z,100756.19
2023-04-18T03:47:00.608Z,100757.86
2023-04-18T03:49:28.189Z,100758.70
2023-04-18T03:51:55.184Z,100756.83
2023-04-18T03:54:22.062Z,100755.16
2023-04-18T03:56:49.424Z,100757.67
2023-04-18T03:59:16.389Z,100757.02
2023-04-18T04:01:45.998Z,100755.84
2023-04-18T04:04:15.668Z,100759.20
2023-04-18T04:06:43.364Z,100758.28
2023-04-18T04:09:10.583Z,100757.39
2023-04-18T04:11:38.491Z,100759.29
2023-04-18T04:14:06.806Z,100761.23
2023-04-18T04:16:38.367Z,100760.84
2023-04-18T04:19:05.921Z,100760.02
2023-04-18T04:21:37.616Z,100762.66
2023-04-18T04:24:05.268Z,100764.16
2023-04-18T04:26:37.092Z,100765.18
2023-04-18T04:29:11.220Z,100769.57
2023-04-18T04:31:38.668Z,100773.88
2023-04-18T04:34:06.311Z,100773.52
2023-04-18T04:36:33.583Z,100772.04
2023-04-18T04:39:04.286Z,100771.92
2023-04-18T04:41:43.503Z,100771.52
2023-04-18T04:44:11.040Z,100777.36
2023-04-18T04:46:40.454Z,100779.64
2023-04-18T04:49:12.361Z,100781.91
2023-04-18T04:51:40.266Z,100785.08
2023-04-18T04:54:07.185Z,100781.63
2023-04-18T04:56:34.092Z,100782.80
2023-04-18T04:59:01.993Z,100784.61
2023-04-18T05:01:34.055Z,100792.45
2023-04-18T05:04:01.208Z,100792.92
2023-04-18T05:06:28.341Z,100795.92
2023-04-18T05:08:56.961Z,100797.23
2023-04-18T05:11:23.943Z,100798.11
2023-04-18T05:13:50.751Z,100798.27
2023-04-18T05:16:18.086Z,100803.59
2023-04-18T05:18:44.944Z,100806.47
2023-04-18T05:21:11.754Z,100801.72
2023-04-18T05:23:38.579Z,100805.64
2023-04-18T05:26:06.308Z,100802.16
2023-04-18T05:28:33.222Z,100806.48
2023-04-18T05:31:03.011Z,100810.59
2023-04-18T05:33:31.734Z,100813.23
2023-04-18T05:35:59.300Z,100814.02
2023-04-18T05:38:26.369Z,100815.64
2023-04-18T05:40:55.949Z,100815.52
2023-04-18T05:43:23.591Z,100819.61
2023-04-18T05:45:52.395Z,100816.06
2023-04-18T05:48:19.567Z,100819.02
2023-04-18T05:50:46.379Z,100818.93
2023-04-18T05:53:13.349Z,100815.65
2023-04-18T05:55:41.137Z,100813.70
2023-04-18T05:58:08.115Z,100817.19
2023-04-18T06:00:35.161Z,100820.20
2023-04-18T06:03:02.286Z,100818.88
2023-04-18T06:05:29.855Z,100822.62
2023-04-18T06:07:57.981Z,100826.48
2023-04-18T06:10:24.806Z,100830.26
2023-04-18T06:12:51.745Z,100826.78
2023-04-18T06:15:18.667Z,100826.95
2023-04-18T06:17:45.842Z,100825.05
2023-04-18T06:20:12.954Z,100828.09
2023-04-18T06:22:39.907Z,100826.61
2023-04-18T06:25:09.058Z,100826.11
2023-04-18T06:27:37.553Z,100829.31
2023-04-18T06:30:05.981Z,100829.20
2023-04-18T06:32:32.918Z,100833.16
2023-04-18T06:34:59.838Z,100832.82
2023-04-18T06:37:26.863Z,100833.28
2023-04-18T06:39:53.823Z,100834.60
2023-04-18T06:42:22.366Z,100838.95
2023-04-18T06:44:50.088Z,100835.98
2023-04-18T06:47:17.052Z,100834.15
2023-04-18T06:49:43.896Z,100836.13
2023-04-18T06:52:11.152Z,100836.59
2023-04-18T06:54:38.063Z,100840.55
2023-04-18T06:57:05.081Z,100838.87
2023-04-18T06:59:31.912Z,100842.94
2023-04-18T07:01:58.742Z,100846.89
2023-04-18T07:04:26.298Z,100840.32
2023-04-18T07:06:53.267Z,100841.06
2023-04-18T07:09:20.752Z,100842.25
2023-04-18T07:11:47.551Z,100841.56
2023-04-18T07:14:14.724Z,100839.20
2023-04-18T07:16:41.915Z,100840.45
2023-04-18T07:19:08.938Z,100838.64
2023-04-18T07:21:37.864Z,100839.45
2023-04-18T07:24:04.899Z,100839.59
2023-04-18T07:26:31.857Z,100842.99
2023-04-18T07:28:58.676Z,100844.02
2023-04-18T07:31:25.989Z,100845.47
2023-04-18T07:33:52.865Z,100850.05
2023-04-18T07:36:19.628Z,100846.67
2023-04-18T07:38:46.912Z,100850.45
2023-04-18T07:41:13.790Z,100850.27
2023-04-18T07:43:40.713Z,100854.20
2023-04-18T07:46:08.194Z,100855.59
2023-04-18T07:48:35.181Z,100857.34
2023-04-18T07:51:02.892Z,100856.79
2023-04-18T07:53:29.854Z,100858.63
2023-04-18T07:55:56.773Z,100860.05
2023-04-18T07:58:23.582Z,100858.01
2023-04-18T08:00:50.360Z,100860.17
2023-04-18T08:03:17.326Z,100865.14
2023-04-18T08:05:44.293Z,100863.06
2023-04-18T08:08:12.140Z,100869.52
2023-04-18T08:10:39.192Z,100868.95
2023-04-18T08:13:06.966Z,100874.05
2023-04-18T08:15:33.941Z,100874.38
2023-04-18T08:18:02.235Z,100876.95
2023-04-18T08:20:29.505Z,100875.08
2023-04-18T08:23:06.946Z,100878.21
2023-04-18T08:25:36.589Z,100880.71
2023-04-18T08:28:04.244Z,100884.05
2023-04-18T08:30:31.634Z,100887.98
2023-04-18T08:33:02.140Z,100889.33
2023-04-18T08:35:29.156Z,100891.83
2023-04-18T08:37:55.991Z,100893.08
2023-04-18T08:40:23.002Z,100894.02
2023-04-18T08:42:53.063Z,100891.58
2023-04-18T08:45:20.109Z,100896.14
2023-04-18T08:47:47.125Z,100891.44
2023-04-18T08:50:14.000Z,100896.00
2023-04-18T08:52:48.216Z,100895.95
2023-04-18T08:55:16.316Z,100894.84
2023-04-18T08:57:43.996Z,100896.69
2023-04-18T09:00:11.835Z,100897.88
2023-04-18T09:02:43.842Z,100896.03
2023-04-18T09:05:21.674Z,100895.35
2023-04-18T09:07:50.877Z,100891.77
2023-04-18T09:10:33.037Z,100893.34
2023-04-18T09:13:05.659Z,100888.21
2023-04-18T09:15:32.550Z,100883.98
2023-04-18T09:18:03.257Z,100884.34
2023-04-18T09:20:41.459Z,100883.34
2023-04-18T09:23:16.368Z,100884.55
2023-04-18T09:25:48.207Z,100881.30
2023-04-18T09:28:24.042Z,100880.46
2023-04-18T09:30:52.824Z,100881.58
2023-04-18T09:33:33.629Z,100877.46
2023-04-18T09:36:18.901Z,100876.95
2023-04-18T09:38:46.377Z,100875.52
2023-04-18T09:41:16.569Z,100874.69
2023-04-18T09:43:46.610Z,100877.13
2023-04-18T09:46:14.456Z,100878.79
2023-04-18T09:48:42.028Z,100877.94
2023-04-18T09:51:16.055Z,100881.59
2023-04-18T09:53:45.102Z,100879.95
2023-04-18T09:56:28.022Z,100882.73
2023-04-18T09:59:08.772Z,100879.70
2023-04-18T10:01:36.703Z,100879.38
2023-04-18T10:04:06.885Z,100881.11
2023-04-18T10:06:38.527Z,100877.01
2023-04-18T10:09:06.104Z,100879.61
2023-04-18T10:11:33.448Z,100880.23
2023-04-18T10:14:09.897Z,100875.29
2023-04-18T10:16:38.855Z,100877.55
2023-04-18T10:19:21.136Z,100875.71
2023-04-18T10:21:56.491Z,100872.23
2023-04-18T10:24:48.522Z,100870.94
2023-04-18T10:27:19.099Z,100868.60
2023-04-18T10:29:50.830Z,100866.34
2023-04-18T10:32:23.708Z,100865.99
2023-04-18T10:34:53.553Z,100862.02
2023-04-18T10:37:20.465Z,100863.52
2023-04-18T10:40:07.630Z,100861.63
2023-04-18T10:42:46.665Z,100862.08
2023-04-18T10:45:20.490Z,100857.88
2023-04-18T10:47:47.426Z,100855.35
2023-04-18T10:50:15.639Z,100854.63
2023-04-18T10:52:42.761Z,100852.41
2023-04-18T10:55:11.655Z,100849.42
2023-04-18T10:57:49.491Z,100844.52
2023-04-18T11:00:19.037Z,100843.71
2023-04-18T11:02:52.025Z,100839.28
2023-04-18T11:05:21.413Z,100833.33
2023-04-18T11:07:51.325Z,100832.73
2023-04-18T11:10:24.586Z,100832.45
2023-04-18T11:12:53.258Z,100829.27
2023-04-18T11:15:24.674Z,100825.41
2023-04-18T11:18:03.916Z,100826.60
2023-04-18T11:20:46.119Z,100824.86
2023-04-18T11:23:30.803Z,100823.59
2023-04-18T11:25:58.418Z,100822.19
2023-04-18T11:28:25.432Z,100819.44
2023-04-18T11:30:52.296Z,100821.30
2023-04-18T11:33:19.181Z,100818.14
2023-04-18T11:35:46.895Z,100816.11
2023-04-18T11:38:15.206Z,100814.45
2023-04-18T11:40:49.644Z,100813.69
2023-04-18T11:43:24.689Z,100810.88
2023-04-18T11:45:59.405Z,100810.00
2023-04-18T11:48:37.052Z,100810.61
2023-04-18T11:51:06.007Z,100812.80
2023-04-18T11:53:37.131Z,100807.73
2023-04-18T11:56:05.671Z,100812.56
2023-04-18T11:58:34.144Z,100810.80
2023-04-18T12:01:22.001Z,100808.75
2023-04-18T12:04:09.279Z,100810.50
2023-04-18T12:06:49.986Z,100811.44
2023-04-18T12:09:17.714Z,100812.16
2023-04-18T12:11:56.264Z,100812.77
2023-04-18T12:14:23.202Z,100807.69
2023-04-18T12:16:50.824Z,100806.83
2023-04-18T12:19:20.811Z,100815.77
2023-04-18T12:22:02.145Z,100812.00
2023-04-18T12:24:29.070Z,100808.45
2023-04-18T12:26:57.760Z,100810.79
2023-04-18T12:29:25.723Z,100806.88
2023-04-18T12:31:52.998Z,100807.93
2023-04-18T12:34:20.500Z,100810.16
2023-04-18T12:36:47.451Z,100813.48
2023-04-18T12:39:14.419Z,100809.62
2023-04-18T12:41:41.319Z,100809.22
2023-04-18T12:44:09.403Z,100809.59
2023-04-18T12:46:37.080Z,100812.93
2023-04-18T12:49:04.029Z,100810.42
2023-04-18T12:51:31.568Z,100812.44
2023-04-18T12:53:58.476Z,100811.55
2023-04-18T12:56:25.683Z,100809.29
2023-04-18T12:58:52.560Z,100811.67
2023-04-18T13:01:19.950Z,100807.09
2023-04-18T13:03:56.397Z,100806.77
2023-04-18T13:06:27.468Z,100808.12
2023-04-18T13:08:54.393Z,100810.36
2023-04-18T13:11:22.631Z,100812.12
2023-04-18T13:13:49.688Z,100813.07
2023-04-18T13:16:16.697Z,100808.80
2023-04-18T13:18:46.351Z,100807.16
2023-04-18T13:21:14.753Z,100807.20
2023-04-18T13:23:41.468Z,100811.27
2023-04-18T13:26:08.889Z,100812.60
2023-04-18T13:28:35.567Z,100816.23
2023-04-18T13:31:02.178Z,100812.30
2023-04-18T13:33:28.832Z,100814.45
2023-04-18T13:35:56.045Z,100819.20
2023-04-18T13:38:23.501Z,100815.08
2023-04-18T13:40:55.841Z,100817.48
2023-04-18T13:43:31.626Z,100812.80
2023-04-18T13:45:58.407Z,100813.17
2023-04-18T13:48:25.082Z,100810.92
2023-04-18T13:50:51.745Z,100809.36
2023-04-18T13:53:18.864Z,100808.95
2023-04-18T13:55:46.098Z,100806.85
2023-04-18T13:58:12.965Z,100809.11
2023-04-18T14:00:39.917Z,100807.86
2023-04-18T14:03:06.958Z,100811.79
2023-04-18T14:05:34.172Z,100805.55
2023-04-18T14:08:04.081Z,100809.36
2023-04-18T14:10:31.425Z,100806.01
2023-04-18T14:13:04.135Z,100805.00
2023-04-18T14:15:33.291Z,100798.25
2023-04-18T14:18:01.063Z,100803.83
2023-04-18T14:20:34.378Z,100800.86
2023-04-18T14:23:02.080Z,100800.75
2023-04-18T14:25:30.066Z,100800.35
2023-04-18T14:28:11.977Z,100803.76
2023-04-18T14:30:40.521Z,100804.46
2023-04-18T14:33:09.720Z,100802.64
2023-04-18T14:35:36.537Z,100808.26
2023-04-18T14:38:03.170Z,100804.06
2023-04-18T14:40:32.528Z,100799.84
2023-04-18T14:42:59.710Z,100800.33
2023-04-18T14:45:26.365Z,100800.20
2023-04-18T14:47:53.751Z,100798.59
2023-04-18T14:50:20.748Z,100798.13
2023-04-18T14:52:47.524Z,100796.54
2023-04-18T14:55:14.285Z,100800.86
2023-04-18T14:57:41.037Z,100796.58
2023-04-18T15:00:10.871Z,100799.80
2023-04-18T15:02:37.905Z,100801.17
2023-04-18T15:05:05.300Z,100795.55
2023-04-18T15:07:32.114Z,100792.11
2023-04-18T15:09:58.778Z,100794.39
2023-04-18T15:12:26.583Z,100797.27
2023-04-18T15:14:53.933Z,100796.30
2023-04-18T15:17:20.898Z,100795.29
2023-04-18T15:19:47.627Z,100794.58
2023-04-18T15:22:14.419Z,100796.91
2023-04-18T15:24:41.474Z,100793.59
2023-04-18T15:27:08.321Z,100799.05
2023-04-18T15:29:35.010Z,100799.67
2023-04-18T15:32:01.703Z,100801.23
2023-04-18T15:34:28.568Z,100801.20
2023-04-18T15:36:55.252Z,100804.67
2023-04-18T15:39:23.674Z,100802.58
2023-04-18T15:41:54.685Z,100802.60
2023-04-18T15:44:22.275Z,100807.85
2023-04-18T15:46:49.437Z,100810.16
2023-04-18T15:49:16.240Z,100810.91
2023-04-18T15:51:42.939Z,100810.86
2023-04-18T15:54:09.557Z,100813.86
2023-04-18T15:56:36.991Z,100814.91
2023-04-18T15:59:05.925Z,100811.83
2023-04-18T16:01:33.445Z,100813.68
2023-04-18T16:04:00.331Z,100815.05
2023-04-18T16:06:27.453Z,100823.48
2023-04-18T16:08:54.365Z,100827.08
2023-04-18T16:11:21.958Z,100827.13
2023-04-18T16:13:48.661Z,100824.59
2023-04-18T16:16:15.377Z,100828.54
2023-04-18T16:18:42.050Z,100830.00
2023-04-18T16:21:08.811Z,100830.58
2023-04-18T16:23:35.777Z,100833.59
2023-04-18T16:26:02.408Z,100832.35
2023-04-18T16:28:30.123Z,100833.51
2023-04-18T16:30:56.798Z,100834.46
2023-04-18T16:33:26.151Z,100834.73
2023-04-18T16:35:53.191Z,100835.08
2023-04-18T16:38:23.543Z,100837.73
2023-04-18T16:40:50.202Z,100837.52
2023-04-18T16:43:16.994Z,100838.95
2023-04-18T16:45:43.719Z,100841.19
2023-04-18T16:48:10.445Z,100843.54
2023-04-18T16:50:37.168Z,100842.98
2023-04-18T16:53:03.963Z,100847.34
2023-04-18T16:55:30.623Z,100847.70
2023-04-18T16:57:57.333Z,100847.14
2023-04-18T17:00:24.295Z,100849.09
2023-04-18T17:02:51.050Z,100851.16
2023-04-18T17:05:18.856Z,100853.94
2023-04-18T17:07:46.166Z,100854.70
2023-04-18T17:10:12.938Z,100851.41
2023-04-18T17:12:39.859Z,100856.02
2023-04-18T17:15:07.078Z,100856.50
2023-04-18T17:17:34.955Z,100860.22
2023-04-18T17:20:01.787Z,100861.55
2023-04-18T17:22:29.604Z,100863.60
2023-04-18T17:24:56.333Z,100864.73
2023-04-18T17:27:23.150Z,100861.45
2023-04-18T17:29:50.148Z,100864.45
2023-04-18T17:32:18.113Z,100866.84
2023-04-18T17:34:45.614Z,100865.82
2023-04-18T17:37:12.524Z,100871.15
2023-04-18T17:39:40.698Z,100871.91
2023-04-18T17:42:07.309Z,100872.02
2023-04-18T17:44:34.023Z,100874.78
2023-04-18T17:47:02.142Z,100879.66
2023-04-18T17:49:34.519Z,100880.20
2023-04-18T17:52:01.890Z,100883.70
2023-04-18T17:54:28.778Z,100886.20
2023-04-18T17:56:55.977Z,100889.20
2023-04-18T17:59:22.625Z,100891.71
2023-04-18T18:01:49.370Z,100894.58
2023-04-18T18:04:16.388Z,100896.05
2023-04-18T18:06:53.798Z,100898.48
2023-04-18T18:09:20.654Z,100899.73
2023-04-18T18:11:47.328Z,100901.54
2023-04-18T18:14:14.031Z,100907.84
2023-04-18T18:16:40.910Z,100909.25
2023-04-18T18:19:07.580Z,100910.28
2023-04-18T18:21:34.221Z,100910.64
2023-04-18T18:24:00.912Z,100917.27
2023-04-18T18:26:27.623Z,100917.92
2023-04-18T18:28:54.515Z,100922.55
2023-04-18T18:31:24.971Z,100927.20
2023-04-18T18:33:52.217Z,100931.48
2023-04-18T18:36:18.891Z,100935.50
2023-04-18T18:38:45.650Z,100938.60
2023-04-18T18:41:12.397Z,100938.11
2023-04-18T18:43:39.139Z,100947.16
2023-04-18T18:46:05.923Z,100951.33
2023-04-18T18:48:32.914Z,100959.20
2023-04-18T18:50:59.523Z,100961.08
2023-04-18T18:53:26.167Z,100968.55
2023-04-18T18:55:52.826Z,100973.64
2023-04-18T18:58:19.591Z,100974.73
2023-04-18T19:00:47.064Z,100981.19
2023-04-18T19:03:14.350Z,100986.53
2023-04-18T19:05:41.276Z,100989.77
2023-04-18T19:08:09.387Z,100990.85
2023-04-18T19:10:36.292Z,100999.07
2023-04-18T19:13:03.490Z,101001.36
2023-04-18T19:15:30.183Z,101001.73
2023-04-18T19:17:57.062Z,101006.77
2023-04-18T19:20:24.148Z,101013.45
2023-04-18T19:22:51.063Z,101014.43
2023-04-18T19:25:17.832Z,101016.56
2023-04-18T19:27:44.555Z,101020.42
2023-04-18T19:30:12.039Z,101021.42
2023-04-18T19:32:38.867Z,101024.10
2023-04-18T19:35:06.937Z,101023.98
2023-04-18T19:37:33.693Z,101023.98
2023-04-18T19:40:00.749Z,101026.95
2023-04-18T19:42:27.407Z,101034.63
2023-04-18T19:44:54.029Z,101033.98
2023-04-18T19:47:20.851Z,101032.86
2023-04-18T19:49:47.550Z,101035.21
2023-04-18T19:52:14.345Z,101033.52
2023-04-18T19:54:41.364Z,101037.96
2023-04-18T19:57:08.050Z,101042.84
2023-04-18T19:59:34.728Z,101043.41
2023-04-18T20:02:04.317Z,101045.54
2023-04-18T20:04:34.297Z,101047.70
2023-04-18T20:07:01.532Z,101050.92
2023-04-18T20:09:28.580Z,101051.65
2023-04-18T20:11:55.514Z,101053.98
2023-04-18T20:14:22.205Z,101058.34
2023-04-18T20:16:49.846Z,101062.73
2023-04-18T20:19:17.839Z,101060.06
2023-04-18T20:21:44.828Z,101064.33
2023-04-18T20:24:11.577Z,101065.59
2023-04-18T20:26:38.208Z,101070.72
2023-04-18T20:29:04.963Z,101072.50
2023-04-18T20:31:31.631Z,101072.20
2023-04-18T20:33:58.360Z,101077.54
2023-04-18T20:36:25.166Z,101081.27
2023-04-18T20:38:51.980Z,101080.20
2023-04-18T20:41:20.898Z,101078.28
2023-04-18T20:43:47.690Z,101082.70
2023-04-18T20:46:14.517Z,101080.91
2023-04-18T20:48:41.328Z,101078.96
2023-04-18T20:51:07.990Z,101083.58
2023-04-18T20:53:34.672Z,101082.35
2023-04-18T20:56:03.115Z,101085.61
2023-04-18T20:58:30.334Z,101088.98
2023-04-18T21:00:56.977Z,101088.88
2023-04-18T21:03:23.764Z,101090.06
2023-04-18T21:05:50.686Z,101093.45
2023-04-18T21:08:17.360Z,101096.27
2023-04-18T21:10:43.960Z,101102.77
2023-04-18T21:13:12.650Z,101107.08
2023-04-18T21:15:41.980Z,101108.38
2023-04-18T21:18:09.132Z,101108.42
2023-04-18T21:20:37.682Z,101110.19
2023-04-18T21:23:05.678Z,101107.52
2023-04-18T21:25:33.068Z,101106.56
2023-04-18T21:28:00.339Z,101110.38
2023-04-18T21:30:27.017Z,101110.16
2023-04-18T21:32:53.727Z,101105.83
2023-04-18T21:35:23.401Z,101111.97
2023-04-18T21:37:51.510Z,101109.98
2023-04-18T21:40:18.300Z,101106.97
2023-04-18T21:42:44.943Z,101111.14
2023-04-18T21:45:11.909Z,101110.30
2023-04-18T21:47:38.650Z,101111.05
2023-04-18T21:50:06.120Z,101109.73
2023-04-18T21:52:32.736Z,101110.80
2023-04-18T21:54:59.557Z,101112.69
2023-04-18T21:57:26.849Z,101111.88
2023-04-18T21:59:54.723Z,101113.17
2023-04-18T22:02:21.945Z,101114.99
2023-04-18T22:04:49.106Z,101125.20
2023-04-18T22:07:15.917Z,101124.97
2023-04-18T22:09:43.644Z,101119.85
2023-04-18T22:12:11.575Z,101119.58
2023-04-18T22:14:38.228Z,101117.41
2023-04-18T22:17:05.026Z,101116.96
2023-04-18T22:19:31.733Z,101120.95
2023-04-18T22:21:59.013Z,101121.06
2023-04-18T22:24:26.090Z,101121.08
2023-04-18T22:26:53.196Z,101122.94
2023-04-18T22:29:19.807Z,101123.66
2023-04-18T22:31:46.399Z,101128.30
2023-04-18T22:34:13.149Z,101125.25
2023-04-18T22:36:40.022Z,101125.42
2023-04-18T22:39:07.478Z,101126.06
2023-04-18T22:41:34.155Z,101126.54
2023-04-18T22:44:00.799Z,101126.54
2023-04-18T22:46:28.247Z,101131.61
2023-04-18T22:48:55.359Z,101131.58
2023-04-18T22:51:23.540Z,101134.46
2023-04-18T22:53:50.355Z,101140.77
2023-04-18T22:56:17.201Z,101142.21
2023-04-18T22:58:43.917Z,101141.23
2023-04-18T23:01:10.861Z,101140.27
2023-04-18T23:03:37.702Z,101140.14
2023-04-18T23:06:07.528Z,101142.56
2023-04-18T23:08:34.377Z,101141.13
2023-04-18T23:11:01.047Z,101142.45
2023-04-18T23:13:27.627Z,101138.94
2023-04-18T23:15:54.370Z,101139.91
2023-04-18T23:18:20.972Z,101137.52
2023-04-18T23:20:47.564Z,101136.58
2023-04-18T23:23:14.219Z,101138.11
2023-04-18T23:25:41.003Z,101134.59
2023-04-18T23:28:08.008Z,101134.22
2023-04-18T23:30:36.926Z,101134.02
2023-04-18T23:33:03.756Z,101130.66
2023-04-18T23:35:30.700Z,101130.98
2023-04-18T23:37:57.497Z,101128.92
2023-04-18T23:40:24.397Z,101133.41
2023-04-18T23:42:51.146Z,101126.25
2023-04-18T23:45:17.942Z,101124.29
2023-04-18T23:47:44.567Z,101125.48
2023-04-18T23:50:12.132Z,101125.50
2023-04-18T23:52:38.785Z,101122.30
2023-04-18T23:55:05.891Z,101126.04
2023-04-18T23:57:32.573Z,101122.52
2023-04-18T23:59:59.182Z,101119.73
